sensor_id;sensor_type;location;lat;lon;timestamp;temperature;humidity
11549;DHT22;61444;59.472;18.306;2023-03-20T10:47:17;6.50;99.90
11549;DHT22;61444;59.472;18.306;2023-03-20T10:49:35;6.50;99.90
11549;DHT22;61444;59.472;18.306;2023-03-20T10:51:48;6.50;99.90
11549;DHT22;61444;59.472;18.306;2023-03-20T10:53:59;6.60;99.90
11549;DHT22;61444;59.472;18.306;2023-03-20T10:56:13;6.70;99.90
11549;DHT22;61444;59.472;18.306;2023-03-20T10:58:25;6.70;99.90
11549;DHT22;61444;59.472;18.306;2023-03-20T11:00:35;6.70;99.90
11549;DHT22;61444;59.472;18.306;2023-03-20T11:02:47;6.70;99.90
11549;DHT22;61444;59.472;18.306;2023-03-20T11:04:55;6.70;99.90
11549;DHT22;61444;59.472;18.306;2023-03-20T11:07:13;6.60;99.90
11549;DHT22;61444;59.472;18.306;2023-03-20T11:09:25;6.60;99.90
11549;DHT22;61444;59.472;18.306;2023-03-20T11:11:35;6.70;99.90
11549;DHT22;61444;59.472;18.306;2023-03-20T11:13:50;6.70;99.90
11549;DHT22;61444;59.472;18.306;2023-03-20T11:16:10;6.70;99.90
11549;DHT22;61444;59.472;18.306;2023-03-20T11:18:23;6.60;99.90
11549;DHT22;61444;59.472;18.306;2023-03-20T11:20:34;6.70;99.90
11549;DHT22;61444;59.472;18.306;2023-03-20T11:22:46;6.60;99.90
11549;DHT22;61444;59.472;18.306;2023-03-20T11:24:57;6.70;99.90
11549;DHT22;61444;59.472;18.306;2023-03-20T11:27:09;6.70;99.90
11549;DHT22;61444;59.472;18.306;2023-03-20T11:29:23;6.70;99.90
11549;DHT22;61444;59.472;18.306;2023-03-20T11:31:34;6.70;99.90
11549;DHT22;61444;59.472;18.306;2023-03-20T11:33:46;6.80;99.90
11549;DHT22;61444;59.472;18.306;2023-03-20T11:35:58;6.70;99.90
11549;DHT22;61444;59.472;18.306;2023-03-20T11:38:12;6.80;99.90
11549;DHT22;61444;59.472;18.306;2023-03-20T11:40:23;6.80;99.90
11549;DHT22;61444;59.472;18.306;2023-03-20T11:42:32;6.70;99.90
11549;DHT22;61444;59.472;18.306;2023-03-20T11:44:56;6.70;99.90
11549;DHT22;61444;59.472;18.306;2023-03-20T11:47:11;6.60;99.90
11549;DHT22;61444;59.472;18.306;2023-03-20T11:49:24;6.60;99.90
11549;DHT22;61444;59.472;18.306;2023-03-20T11:51:34;6.60;99.90
11549;DHT22;61444;59.472;18.306;2023-03-20T11:54:00;6.60;99.90
11549;DHT22;61444;59.472;18.306;2023-03-20T11:56:12;6.70;99.90
11549;DHT22;61444;59.472;18.306;2023-03-20T11:58:22;6.60;99.90
11549;DHT22;61444;59.472;18.306;2023-03-20T12:00:36;6.60;99.90
11549;DHT22;61444;59.472;18.306;2023-03-20T12:02:45;6.70;99.90
11549;DHT22;61444;59.472;18.306;2023-03-20T12:04:58;6.70;99.90
11549;DHT22;61444;59.472;18.306;2023-03-20T12:07:12;6.70;99.90
11549;DHT22;61444;59.472;18.306;2023-03-20T12:09:30;6.70;99.90
11549;DHT22;61444;59.472;18.306;2023-03-20T12:11:46;6.70;99.90
11549;DHT22;61444;59.472;18.306;2023-03-20T12:13:59;6.70;99.90
11549;DHT22;61444;59.472;18.306;2023-03-20T12:16:12;6.80;99.90
11549;DHT22;61444;59.472;18.306;2023-03-20T12:18:24;6.80;99.90
11549;DHT22;61444;59.472;18.306;2023-03-20T12:20:38;6.80;99.90
11549;DHT22;61444;59.472;18.306;2023-03-20T12:22:54;6.90;99.90
11549;DHT22;61444;59.472;18.306;2023-03-20T12:25:15;6.90;99.90
11549;DHT22;61444;59.472;18.306;2023-03-20T12:27:28;7.00;99.90
11549;DHT22;61444;59.472;18.306;2023-03-20T12:29:45;7.10;99.90
11549;DHT22;61444;59.472;18.306;2023-03-20T12:31:57;7.20;99.90
11549;DHT22;61444;59.472;18.306;2023-03-20T12:34:11;7.20;99.90
11549;DHT22;61444;59.472;18.306;2023-03-20T12:36:30;7.20;99.90
11549;DHT22;61444;59.472;18.306;2023-03-20T12:38:40;7.30;99.90
11549;DHT22;61444;59.472;18.306;2023-03-20T12:40:54;7.30;99.90
11549;DHT22;61444;59.472;18.306;2023-03-20T12:43:08;7.30;99.90
11549;DHT22;61444;59.472;18.306;2023-03-20T12:45:20;7.30;99.90
11549;DHT22;61444;59.472;18.306;2023-03-20T12:47:54;7.30;99.90
11549;DHT22;61444;59.472;18.306;2023-03-20T12:50:09;7.30;99.90
11549;DHT22;61444;59.472;18.306;2023-03-20T12:52:30;7.30;99.90
11549;DHT22;61444;59.472;18.306;2023-03-20T12:55:05;7.30;99.90
11549;DHT22;61444;59.472;18.306;2023-03-20T12:57:21;7.20;99.90
11549;DHT22;61444;59.472;18.306;2023-03-20T12:59:40;7.20;99.90
11549;DHT22;61444;59.472;18.306;2023-03-20T13:01:55;7.10;99.90
11549;DHT22;61444;59.472;18.306;2023-03-20T13:04:24;7.10;99.90
11549;DHT22;61444;59.472;18.306;2023-03-20T13:06:46;7.10;99.90
11549;DHT22;61444;59.472;18.306;2023-03-20T13:09:18;7.00;99.90
11549;DHT22;61444;59.472;18.306;2023-03-20T13:11:38;7.00;99.90
11549;DHT22;61444;59.472;18.306;2023-03-20T13:13:52;7.00;99.90
11549;DHT22;61444;59.472;18.306;2023-03-20T13:16:11;7.00;99.90
11549;DHT22;61444;59.472;18.306;2023-03-20T13:18:27;7.00;99.90
11549;DHT22;61444;59.472;18.306;2023-03-20T13:20:45;7.00;99.90
11549;DHT22;61444;59.472;18.306;2023-03-20T13:23:04;7.00;99.90
11549;DHT22;61444;59.472;18.306;2023-03-20T13:25:31;6.90;99.90
11549;DHT22;61444;59.472;18.306;2023-03-20T13:27:46;6.90;99.90
11549;DHT22;61444;59.472;18.306;2023-03-20T13:30:02;6.80;99.90
11549;DHT22;61444;59.472;18.306;2023-03-20T13:32:20;7.00;99.90
11549;DHT22;61444;59.472;18.306;2023-03-20T13:34:44;7.00;99.90
11549;DHT22;61444;59.472;18.306;2023-03-20T13:37:08;7.00;99.90
11549;DHT22;61444;59.472;18.306;2023-03-20T13:39:32;7.10;99.90
11549;DHT22;61444;59.472;18.306;2023-03-20T13:41:46;7.00;99.90
11549;DHT22;61444;59.472;18.306;2023-03-20T13:44:00;7.00;99.90
11549;DHT22;61444;59.472;18.306;2023-03-20T13:46:11;7.00;99.90
11549;DHT22;61444;59.472;18.306;2023-03-20T13:48:27;7.00;99.90
11549;DHT22;61444;59.472;18.306;2023-03-20T13:50:41;7.00;99.90
11549;DHT22;61444;59.472;18.306;2023-03-20T13:52:58;7.00;99.90
11549;DHT22;61444;59.472;18.306;2023-03-20T13:55:18;6.70;99.90
11549;DHT22;61444;59.472;18.306;2023-03-20T13:57:48;6.50;99.90
11549;DHT22;61444;59.472;18.306;2023-03-20T14:00:08;6.10;99.90
11549;DHT22;61444;59.472;18.306;2023-03-20T14:02:32;5.90;99.90
11549;DHT22;61444;59.472;18.306;2023-03-20T15:07:30;4.00;99.90
11549;DHT22;61444;59.472;18.306;2023-03-20T15:09:44;4.00;99.90
11549;DHT22;61444;59.472;18.306;2023-03-20T15:11:53;4.00;99.90
11549;DHT22;61444;59.472;18.306;2023-03-20T15:14:07;3.80;99.90
11549;DHT22;61444;59.472;18.306;2023-03-20T15:16:26;3.80;99.90
11549;DHT22;61444;59.472;18.306;2023-03-20T15:18:37;3.70;99.90
11549;DHT22;61444;59.472;18.306;2023-03-20T15:20:46;3.80;99.90
11549;DHT22;61444;59.472;18.306;2023-03-20T15:22:56;3.70;99.90
11549;DHT22;61444;59.472;18.306;2023-03-20T15:25:14;3.70;99.90
11549;DHT22;61444;59.472;18.306;2023-03-20T15:27:25;3.50;99.90
11549;DHT22;61444;59.472;18.306;2023-03-20T15:29:43;3.40;99.90
11549;DHT22;61444;59.472;18.306;2023-03-20T15:31:56;3.40;99.90
11549;DHT22;61444;59.472;18.306;2023-03-20T15:34:21;3.40;99.90
11549;DHT22;61444;59.472;18.306;2023-03-20T15:36:33;3.40;99.90
11549;DHT22;61444;59.472;18.306;2023-03-20T15:38:44;3.30;99.90
11549;DHT22;61444;59.472;18.306;2023-03-20T15:40:53;3.20;99.90
11549;DHT22;61444;59.472;18.306;2023-03-20T15:43:09;3.10;99.90
11549;DHT22;61444;59.472;18.306;2023-03-20T15:45:21;3.00;99.90
11549;DHT22;61444;59.472;18.306;2023-03-20T15:47:34;3.00;99.90
11549;DHT22;61444;59.472;18.306;2023-03-20T15:49:48;2.90;99.90
11549;DHT22;61444;59.472;18.306;2023-03-20T15:52:01;2.80;99.90
11549;DHT22;61444;59.472;18.306;2023-03-20T15:54:13;2.70;99.90
11549;DHT22;61444;59.472;18.306;2023-03-20T15:56:26;2.70;99.90
11549;DHT22;61444;59.472;18.306;2023-03-20T15:58:35;2.60;99.90
11549;DHT22;61444;59.472;18.306;2023-03-20T16:00:45;2.60;99.90
11549;DHT22;61444;59.472;18.306;2023-03-20T16:02:56;2.60;99.90
11549;DHT22;61444;59.472;18.306;2023-03-20T16:05:09;2.50;99.90
11549;DHT22;61444;59.472;18.306;2023-03-20T16:07:20;2.50;99.90
11549;DHT22;61444;59.472;18.306;2023-03-20T16:09:29;2.50;99.90
11549;DHT22;61444;59.472;18.306;2023-03-20T16:11:39;2.40;99.90
11549;DHT22;61444;59.472;18.306;2023-03-20T16:13:51;2.40;99.90
11549;DHT22;61444;59.472;18.306;2023-03-20T16:16:01;2.30;99.90
11549;DHT22;61444;59.472;18.306;2023-03-20T16:18:14;2.30;99.90
11549;DHT22;61444;59.472;18.306;2023-03-20T16:20:27;2.20;99.90
11549;DHT22;61444;59.472;18.306;2023-03-20T16:22:37;2.20;99.90
11549;DHT22;61444;59.472;18.306;2023-03-20T16:24:47;2.20;99.90
11549;DHT22;61444;59.472;18.306;2023-03-20T16:26:57;2.10;99.90
11549;DHT22;61444;59.472;18.306;2023-03-20T16:29:06;2.20;99.90
11549;DHT22;61444;59.472;18.306;2023-03-20T16:31:17;2.20;99.90
11549;DHT22;61444;59.472;18.306;2023-03-20T16:33:29;2.20;99.90
11549;DHT22;61444;59.472;18.306;2023-03-20T16:35:43;2.10;99.90
11549;DHT22;61444;59.472;18.306;2023-03-20T16:37:54;2.20;99.90
11549;DHT22;61444;59.472;18.306;2023-03-20T16:40:15;2.10;99.90
11549;DHT22;61444;59.472;18.306;2023-03-20T16:42:27;2.10;99.90
11549;DHT22;61444;59.472;18.306;2023-03-20T16:44:39;2.10;99.90
11549;DHT22;61444;59.472;18.306;2023-03-20T16:46:57;2.10;99.90
11549;DHT22;61444;59.472;18.306;2023-03-20T16:52:00;2.10;99.90
11549;DHT22;61444;59.472;18.306;2023-03-20T16:54:18;2.10;99.90
11549;DHT22;61444;59.472;18.306;2023-03-20T16:56:32;2.10;99.90
11549;DHT22;61444;59.472;18.306;2023-03-20T16:58:44;2.00;99.90
11549;DHT22;61444;59.472;18.306;2023-03-20T17:00:58;2.10;99.90
11549;DHT22;61444;59.472;18.306;2023-03-20T17:03:13;2.00;99.90
11549;DHT22;61444;59.472;18.306;2023-03-20T17:05:34;2.00;99.90
11549;DHT22;61444;59.472;18.306;2023-03-20T17:07:49;2.00;99.90
11549;DHT22;61444;59.472;18.306;2023-03-20T17:10:00;2.00;99.90
11549;DHT22;61444;59.472;18.306;2023-03-20T17:12:19;2.00;99.90
11549;DHT22;61444;59.472;18.306;2023-03-20T17:14:27;1.90;99.90
